Time;durP1;ratioP1;P1;durP2;ratioP2;P2;SDS_P1;SDS_P2;PMS_P1;PMS_P2;Temp;Humidity;BMP_temperature;BMP_pressure;BME280_temperature;BME280_humidity;BME280_pressure;Samples;Min_cycle;Max_cycle;Signal;HPM_P1;HPM_P2
2023/03/13 00:01:27;;;;;;;13.50;12.20;;;10.50;32.70;;;;;;4989326;28;20851;-75
2023/03/13 00:03:54;;;;;;;11.87;11.10;;;10.50;31.90;;;;;;4989425;28;20425;-75
2023/03/13 00:06:20;;;;;;;13.70;12.50;;;10.60;32.00;;;;;;4988872;28;20469;-74
2023/03/13 00:08:45;;;;;;;12.97;12.07;;;10.70;32.20;;;;;;4989737;28;20985;-74
2023/03/13 00:11:12;;;;;;;11.90;11.00;;;10.80;32.20;;;;;;4988975;28;20465;-75
2023/03/13 00:13:38;;;;;;;12.77;11.87;;;10.80;32.20;;;;;;4989035;28;20177;-74
2023/03/13 00:16:06;;;;;;;13.07;11.90;;;10.80;32.10;;;;;;4989243;28;20524;-74
2023/03/13 00:18:31;;;;;;;13.23;12.10;;;10.80;31.90;;;;;;4971566;28;20624;-75
2023/03/13 00:21:02;;;;;;;12.93;11.80;;;10.90;31.70;;;;;;4971556;28;20460;-74
2023/03/13 00:23:28;;;;;;;14.03;13.00;;;10.90;31.20;;;;;;4989652;28;20166;-75
2023/03/13 00:26:05;;;;;;;13.33;12.27;;;10.70;32.10;;;;;;4988708;28;20444;-75
2023/03/13 00:28:32;;;;;;;12.40;11.43;;;10.60;32.00;;;;;;4971431;28;20432;-75
2023/03/13 00:31:14;;;;;;;11.73;10.93;;;10.50;32.80;;;;;;4971345;28;20469;-75
2023/03/13 00:33:45;;;;;;;12.23;11.13;;;10.30;33.00;;;;;;4989112;28;20436;-75
2023/03/13 00:36:13;;;;;;;11.83;10.93;;;10.20;33.50;;;;;;4972196;28;20776;-74
2023/03/13 00:38:39;;;;;;;12.93;11.90;;;10.10;34.00;;;;;;4972349;28;20417;-76
2023/03/13 00:41:11;;;;;;;11.97;11.13;;;10.10;34.30;;;;;;4990651;28;20837;-76
2023/03/13 00:43:38;;;;;;;12.70;11.70;;;10.10;34.70;;;;;;4992678;28;20899;-74
2023/03/13 00:46:04;;;;;;;12.50;11.43;;;10.10;34.70;;;;;;4992262;28;20433;-75
2023/03/13 00:48:30;;;;;;;13.07;11.70;;;10.10;34.60;;;;;;4974674;28;20409;-75
2023/03/13 00:50:56;;;;;;;13.30;12.07;;;10.20;34.80;;;;;;4991878;28;20597;-75
2023/03/13 00:53:21;;;;;;;12.03;11.20;;;10.30;34.30;;;;;;4993067;28;20890;-75
2023/03/13 00:55:57;;;;;;;12.93;11.97;;;10.40;34.50;;;;;;4992890;28;20264;-75
2023/03/13 00:58:24;;;;;;;12.30;11.50;;;10.50;33.70;;;;;;4991361;28;20221;-75
2023/03/13 01:00:50;;;;;;;12.20;11.27;;;10.50;33.30;;;;;;4973785;28;20512;-74
2023/03/13 01:03:15;;;;;;;12.87;11.97;;;10.60;33.50;;;;;;4991371;28;20519;-75
2023/03/13 01:05:41;;;;;;;12.37;11.37;;;10.70;33.20;;;;;;4991495;28;20197;-75
2023/03/13 01:08:06;;;;;;;12.60;11.43;;;10.70;32.50;;;;;;4991600;28;20248;-75
2023/03/13 01:10:32;;;;;;;12.73;11.70;;;10.80;32.60;;;;;;4991635;28;20206;-75
2023/03/13 01:12:58;;;;;;;12.23;11.30;;;10.80;32.20;;;;;;4990995;28;20249;-75
2023/03/13 01:15:23;;;;;;;14.43;13.30;;;10.90;32.30;;;;;;4991608;28;20193;-76
2023/03/13 01:17:49;;;;;;;12.53;11.53;;;10.90;32.30;;;;;;4990671;28;20190;-75
2023/03/13 01:20:15;;;;;;;13.53;12.30;;;10.90;32.30;;;;;;4990901;28;20269;-76
2023/03/13 01:22:40;;;;;;;12.73;11.60;;;10.90;32.30;;;;;;4973965;28;20209;-75
2023/03/13 01:25:07;;;;;;;13.03;12.00;;;10.90;32.30;;;;;;4991206;28;20410;-75
2023/03/13 01:27:32;;;;;;;12.53;11.70;;;10.90;32.10;;;;;;4990945;28;20180;-75
2023/03/13 01:29:58;;;;;;;13.53;12.43;;;10.90;32.30;;;;;;4990933;28;20469;-75
2023/03/13 01:32:23;;;;;;;12.83;12.03;;;10.90;32.30;;;;;;4991717;28;20176;-75
2023/03/13 01:34:49;;;;;;;13.33;11.93;;;11.00;32.40;;;;;;4992338;28;20230;-75
2023/03/13 01:37:15;;;;;;;13.47;12.27;;;11.00;32.40;;;;;;4990688;28;20249;-75
2023/03/13 01:39:40;;;;;;;13.00;12.00;;;11.00;32.40;;;;;;4974836;28;20302;-75
2023/03/13 01:42:06;;;;;;;15.00;13.50;;;11.00;32.40;;;;;;4991333;28;20186;-75
2023/03/13 01:44:56;;;;;;;14.07;13.07;;;10.90;32.30;;;;;;4990996;28;20583;-74
2023/03/13 01:47:22;;;;;;;13.93;12.90;;;11.00;32.20;;;;;;4972872;28;20421;-75
2023/03/13 01:49:49;;;;;;;12.80;11.80;;;10.90;32.30;;;;;;4990481;28;21041;-74
2023/03/13 01:52:24;;;;;;;13.47;12.43;;;10.90;32.30;;;;;;4990965;28;20447;-74
2023/03/13 01:55:02;;;;;;;13.20;12.20;;;10.80;32.20;;;;;;4990473;28;20424;-74
2023/03/13 01:57:36;;;;;;;13.27;12.17;;;10.80;32.50;;;;;;4990498;28;20411;-75
2023/03/13 02:00:10;;;;;;;13.90;12.80;;;10.80;32.20;;;;;;4990968;28;20879;-74
2023/03/13 02:02:39;;;;;;;14.03;12.30;;;10.90;32.30;;;;;;4990091;28;20930;-74
2023/03/13 02:05:06;;;;;;;12.40;11.60;;;10.90;32.30;;;;;;4973255;28;20465;-74
2023/03/13 02:07:46;;;;;;;12.07;11.23;;;10.90;32.30;;;;;;4990630;28;20460;-74
2023/03/13 02:10:15;;;;;;;11.97;11.00;;;10.90;32.30;;;;;;4990486;28;20580;-74
2023/03/13 02:12:41;;;;;;;13.87;12.53;;;10.80;32.20;;;;;;4990365;28;20416;-74
2023/03/13 02:15:14;;;;;;;12.87;11.90;;;10.80;32.20;;;;;;4989991;28;20413;-74
2023/03/13 02:17:41;;;;;;;11.13;10.27;;;10.90;32.30;;;;;;4990106;28;20516;-74
2023/03/13 02:20:07;;;;;;;10.60;9.83;;;10.80;32.10;;;;;;4990028;28;20421;-75
2023/03/13 02:22:41;;;;;;;11.13;10.30;;;10.70;31.20;;;;;;4989602;28;20412;-75
2023/03/13 02:25:22;;;;;;;11.33;10.30;;;10.60;32.00;;;;;;4989815;28;20417;-74
2023/03/13 02:27:51;;;;;;;11.53;10.47;;;10.50;31.90;;;;;;4972660;28;20456;-74
2023/03/13 02:30:17;;;;;;;11.10;10.30;;;10.40;31.90;;;;;;4980804;28;20462;-75
2023/03/13 02:32:44;;;;;;;10.97;10.27;;;10.30;32.30;;;;;;4990441;28;20429;-75
2023/03/13 02:35:13;;;;;;;10.13;9.53;;;10.30;32.40;;;;;;5008156;28;20479;-75
2023/03/13 02:37:41;;;;;;;10.80;10.10;;;10.30;32.60;;;;;;5008929;28;20492;-74
2023/03/13 02:40:14;;;;;;;10.70;9.80;;;10.20;32.70;;;;;;5008887;28;20831;-75
2023/03/13 02:42:42;;;;;;;9.70;9.13;;;10.20;32.90;;;;;;4991617;28;20857;-74
2023/03/13 02:45:08;;;;;;;10.27;9.43;;;10.20;33.20;;;;;;4991330;28;20420;-75
2023/03/13 02:47:34;;;;;;;9.47;8.87;;;10.20;33.20;;;;;;5008932;28;20417;-74
2023/03/13 02:49:59;;;;;;;9.87;9.03;;;10.20;33.40;;;;;;5008787;28;20475;-75
2023/03/13 02:52:37;;;;;;;9.47;8.97;;;10.20;33.20;;;;;;5008675;28;20546;-73
2023/03/13 02:55:29;;;;;;;10.00;9.47;;;10.30;33.20;;;;;;5009078;28;20173;-73
2023/03/13 02:57:55;;;;;;;9.53;8.93;;;10.40;33.20;;;;;;4991979;28;20743;-74
2023/03/13 03:00:25;;;;;;;9.83;9.27;;;10.40;33.30;;;;;;5011568;28;20440;-74
2023/03/13 03:02:51;;;;;;;10.67;9.97;;;10.40;33.10;;;;;;5009085;28;20223;-74
2023/03/13 03:05:16;;;;;;;10.73;9.90;;;10.40;33.40;;;;;;5008104;28;20455;-75
2023/03/13 03:07:42;;;;;;;10.60;9.90;;;10.50;33.30;;;;;;5008686;28;20426;-74
2023/03/13 03:10:08;;;;;;;9.60;9.10;;;10.40;33.30;;;;;;5008740;28;20560;-75
2023/03/13 03:12:34;;;;;;;9.30;8.80;;;10.50;34.20;;;;;;5008240;28;20698;-75
2023/03/13 03:14:59;;;;;;;9.83;9.20;;;10.50;33.30;;;;;;5008182;28;20412;-75
2023/03/13 03:17:25;;;;;;;9.70;9.17;;;10.50;33.30;;;;;;5007894;28;20301;-74
2023/03/13 03:19:50;;;;;;;9.97;9.30;;;10.50;34.00;;;;;;5008483;28;20184;-74
2023/03/13 03:22:16;;;;;;;10.33;9.57;;;10.50;35.00;;;;;;4990708;28;20218;-75
2023/03/13 03:24:41;;;;;;;9.97;9.37;;;10.50;35.70;;;;;;5007726;28;20197;-75
2023/03/13 03:27:07;;;;;;;10.10;9.50;;;10.50;36.00;;;;;;5008089;28;20896;-75
2023/03/13 03:29:32;;;;;;;10.20;9.50;;;10.50;37.30;;;;;;5008612;28;20315;-74
2023/03/13 03:31:58;;;;;;;10.70;10.00;;;10.50;37.20;;;;;;5007880;28;20235;-74
2023/03/13 03:34:23;;;;;;;9.80;9.30;;;10.50;37.50;;;;;;5007870;28;20201;-74
2023/03/13 03:36:49;;;;;;;9.97;9.27;;;10.50;37.60;;;;;;4990715;28;20290;-75
2023/03/13 03:39:14;;;;;;;9.77;9.17;;;10.50;37.90;;;;;;5007321;28;20185;-75
2023/03/13 03:41:40;;;;;;;9.73;9.10;;;10.50;38.10;;;;;;5007391;28;20185;-75
2023/03/13 03:44:05;;;;;;;8.80;8.50;;;10.60;38.40;;;;;;4990193;28;20542;-74
2023/03/13 03:46:31;;;;;;;9.20;8.73;;;10.60;37.90;;;;;;5007340;28;20667;-75
2023/03/13 03:48:57;;;;;;;11.30;10.30;;;10.60;38.20;;;;;;4990364;28;20177;-74
2023/03/13 03:51:22;;;;;;;9.97;9.27;;;10.60;38.40;;;;;;5008086;28;20251;-75
2023/03/13 03:53:48;;;;;;;10.03;9.43;;;10.70;39.00;;;;;;4989996;28;20245;-75
2023/03/13 03:56:14;;;;;;;8.83;8.43;;;10.80;37.90;;;;;;5009034;28;20589;-74
2023/03/13 03:58:39;;;;;;;9.87;9.40;;;10.80;37.70;;;;;;4990282;28;20181;-74
2023/03/13 04:01:05;;;;;;;9.27;8.93;;;10.90;37.80;;;;;;5007737;28;20423;-74
2023/03/13 04:03:31;;;;;;;9.17;8.67;;;10.90;37.70;;;;;;5008828;28;20434;-74
2023/03/13 04:05:56;;;;;;;9.50;9.10;;;10.90;38.10;;;;;;5008389;28;20655;-74
2023/03/13 04:08:22;;;;;;;9.00;8.70;;;11.00;38.70;;;;;;5008773;28;20895;-75
2023/03/13 04:10:48;;;;;;;9.83;9.27;;;11.10;38.80;;;;;;4990050;28;20213;-75
2023/03/13 04:13:13;;;;;;;9.10;8.70;;;11.10;39.30;;;;;;5007849;28;20174;-75
2023/03/13 04:15:40;;;;;;;9.70;9.20;;;11.20;40.80;;;;;;5008081;28;20664;-75
2023/03/13 04:18:06;;;;;;;8.30;8.00;;;11.40;41.50;;;;;;5010249;28;20190;-74
2023/03/13 04:20:31;;;;;;;8.80;8.50;;;11.50;41.50;;;;;;5012310;28;20779;-74
2023/03/13 04:22:57;;;;;;;9.17;8.77;;;11.60;41.60;;;;;;5012907;28;20428;-74
2023/03/13 04:25:23;;;;;;;8.90;8.60;;;11.70;41.90;;;;;;5013303;28;20469;-74
2023/03/13 04:27:48;;;;;;;9.20;8.90;;;11.80;41.90;;;;;;4997909;28;20560;-73
2023/03/13 04:30:14;;;;;;;8.97;8.67;;;11.90;41.80;;;;;;5001394;28;20293;-74
2023/03/13 04:32:40;;;;;;;8.80;8.40;;;12.00;41.70;;;;;;5020753;28;20388;-74
2023/03/13 04:35:06;;;;;;;9.10;8.80;;;12.00;42.00;;;;;;5004049;28;20190;-75
2023/03/13 04:37:32;;;;;;;8.23;7.83;;;12.00;42.00;;;;;;4987575;28;20510;-75
2023/03/13 04:39:57;;;;;;;9.20;8.90;;;12.00;42.20;;;;;;4990589;28;20456;-74
2023/03/13 04:42:23;;;;;;;8.63;8.33;;;12.10;42.10;;;;;;4986066;28;20720;-73
2023/03/13 04:44:49;;;;;;;8.83;8.43;;;12.10;42.20;;;;;;4992214;28;20548;-74
2023/03/13 04:47:14;;;;;;;8.40;8.00;;;12.10;42.00;;;;;;4991866;28;20228;-75
2023/03/13 04:49:40;;;;;;;8.07;7.80;;;12.20;42.10;;;;;;4978226;28;20225;-74
2023/03/13 04:52:06;;;;;;;7.77;7.57;;;12.20;41.80;;;;;;4968033;28;20178;-74
2023/03/13 04:54:31;;;;;;;8.63;8.23;;;12.30;41.70;;;;;;4990645;28;20673;-74
2023/03/13 04:56:57;;;;;;;8.20;8.00;;;12.30;41.40;;;;;;4990683;28;20517;-74
2023/03/13 04:59:22;;;;;;;8.97;8.57;;;12.30;41.40;;;;;;4972506;28;20648;-74
2023/03/13 05:01:48;;;;;;;8.63;8.33;;;12.30;41.10;;;;;;4991093;28;20186;-74
2023/03/13 05:04:13;;;;;;;8.93;8.50;;;12.40;41.10;;;;;;4990428;28;20714;-74
2023/03/13 05:06:39;;;;;;;8.53;8.33;;;12.40;41.00;;;;;;4991375;28;20601;-75
2023/03/13 05:09:05;;;;;;;7.80;7.50;;;12.40;41.30;;;;;;4993268;28;20178;-75
2023/03/13 05:11:30;;;;;;;7.60;7.40;;;12.40;41.20;;;;;;4992407;28;20205;-75
2023/03/13 05:13:56;;;;;;;8.20;7.80;;;12.40;41.10;;;;;;4992671;28;20971;-75
2023/03/13 05:16:21;;;;;;;8.23;7.93;;;12.40;40.90;;;;;;4992234;28;20228;-75
2023/03/13 05:18:47;;;;;;;8.47;8.17;;;12.50;40.80;;;;;;4993095;28;20194;-75
2023/03/13 05:21:12;;;;;;;8.90;8.50;;;12.50;40.70;;;;;;4992837;28;20178;-75
2023/03/13 05:23:38;;;;;;;9.40;9.00;;;12.40;41.10;;;;;;4992684;28;20182;-75
2023/03/13 05:26:04;;;;;;;8.73;8.43;;;12.40;41.50;;;;;;4993042;28;20691;-75
2023/03/13 05:28:29;;;;;;;8.87;8.57;;;12.40;41.70;;;;;;4992378;28;20386;-76
2023/03/13 05:30:55;;;;;;;8.37;8.07;;;12.40;41.60;;;;;;4975752;28;20590;-75
2023/03/13 05:33:20;;;;;;;8.70;8.40;;;12.40;41.10;;;;;;4992893;28;20236;-75
2023/03/13 05:35:46;;;;;;;9.00;8.60;;;12.40;41.20;;;;;;5006038;28;20198;-75
2023/03/13 05:38:13;;;;;;;8.27;8.00;;;12.50;40.90;;;;;;4979385;28;20186;-75
2023/03/13 05:40:38;;;;;;;8.60;8.20;;;12.50;40.90;;;;;;4991875;28;20182;-73
2023/03/13 05:43:04;;;;;;;8.60;8.30;;;12.50;41.10;;;;;;4976233;28;20487;-74
2023/03/13 05:45:30;;;;;;;7.47;7.27;;;12.50;40.70;;;;;;5001853;28;20538;-74
2023/03/13 05:47:57;;;;;;;7.60;7.40;;;12.50;41.20;;;;;;4993132;28;20253;-74
2023/03/13 05:50:23;;;;;;;7.97;7.70;;;12.50;40.90;;;;;;4975656;28;20216;-74
2023/03/13 05:52:48;;;;;;;8.40;8.20;;;12.50;40.90;;;;;;4992755;28;20503;-74
2023/03/13 05:55:14;;;;;;;7.90;7.43;;;12.50;41.10;;;;;;4992659;28;20202;-73
2023/03/13 05:57:44;;;;;;;7.80;7.50;;;12.50;41.30;;;;;;4993241;28;20253;-73
2023/03/13 06:00:10;;;;;;;7.77;7.57;;;12.50;41.50;;;;;;4993303;28;20176;-75
2023/03/13 06:02:36;;;;;;;7.73;7.43;;;12.50;41.40;;;;;;4992631;28;20425;-75
2023/03/13 06:05:02;;;;;;;8.67;8.37;;;12.50;41.30;;;;;;4992570;28;20417;-75
2023/03/13 06:07:27;;;;;;;8.03;7.73;;;12.60;41.30;;;;;;4993156;28;20170;-73
2023/03/13 06:09:53;;;;;;;8.30;8.00;;;12.50;41.40;;;;;;4992631;28;20539;-74
2023/03/13 06:12:18;;;;;;;8.03;7.67;;;12.50;41.20;;;;;;4992948;28;20261;-74
2023/03/13 06:14:44;;;;;;;8.30;7.90;;;12.60;40.90;;;;;;4992874;28;20174;-74
2023/03/13 06:17:09;;;;;;;7.67;7.37;;;12.60;41.20;;;;;;4992936;28;20293;-74
2023/03/13 06:19:35;;;;;;;10.63;10.07;;;12.60;41.10;;;;;;4993159;28;20185;-73
2023/03/13 06:22:00;;;;;;;8.13;7.83;;;12.60;40.70;;;;;;4993015;28;20181;-73
2023/03/13 06:24:26;;;;;;;8.00;7.77;;;12.70;40.70;;;;;;4993140;28;20648;-74
2023/03/13 06:26:51;;;;;;;9.20;8.90;;;12.80;40.60;;;;;;4992427;28;20758;-75
2023/03/13 06:29:17;;;;;;;8.57;8.37;;;12.70;40.70;;;;;;4990439;28;20201;-74
2023/03/13 06:31:42;;;;;;;8.40;8.20;;;12.70;40.70;;;;;;4985863;28;20257;-74
2023/03/13 06:34:12;;;;;;;8.60;8.40;;;12.80;40.80;;;;;;4992788;28;20182;-74
2023/03/13 06:36:38;;;;;;;7.97;7.70;;;12.80;41.10;;;;;;4985685;28;20495;-74
2023/03/13 06:39:04;;;;;;;7.70;7.50;;;12.80;41.20;;;;;;4991987;28;20417;-74
2023/03/13 06:41:29;;;;;;;8.60;8.20;;;12.80;41.30;;;;;;4992023;28;20177;-73
2023/03/13 06:43:55;;;;;;;8.53;8.33;;;12.80;41.50;;;;;;4988601;28;20190;-75
2023/03/13 06:46:23;;;;;;;9.50;9.20;;;12.80;41.30;;;;;;4971493;28;20546;-76
2023/03/13 06:48:49;;;;;;;8.40;8.20;;;12.90;41.60;;;;;;4982771;28;20210;-75
2023/03/13 06:51:18;;;;;;;7.73;7.33;;;12.80;41.30;;;;;;4981430;28;20468;-76
2023/03/13 06:53:44;;;;;;;7.90;7.60;;;12.80;41.40;;;;;;4989314;28;20816;-75
2023/03/13 06:56:10;;;;;;;7.53;7.23;;;12.80;41.60;;;;;;4980671;28;20422;-76
2023/03/13 06:58:36;;;;;;;7.80;7.50;;;12.90;41.60;;;;;;4972189;28;20847;-76
2023/03/13 07:01:10;;;;;;;7.70;7.50;;;12.90;41.40;;;;;;4973153;28;20179;-77
2023/03/13 07:03:36;;;;;;;7.63;7.43;;;13.00;41.50;;;;;;4973368;28;20761;-76
2023/03/13 07:06:04;;;;;;;7.20;7.00;;;12.90;41.20;;;;;;4972713;28;20793;-75
2023/03/13 07:08:30;;;;;;;7.63;7.43;;;12.90;41.60;;;;;;4988199;28;21009;-75
2023/03/13 07:11:01;;;;;;;7.90;7.70;;;12.90;41.60;;;;;;4975428;28;20461;-76
2023/03/13 07:13:27;;;;;;;7.87;7.57;;;12.90;41.70;;;;;;4964984;28;20410;-74
2023/03/13 07:15:53;;;;;;;8.60;8.30;;;12.90;42.00;;;;;;4981292;28;22897;-75
2023/03/13 07:18:20;;;;;;;7.90;7.50;;;13.00;41.80;;;;;;4978037;28;20461;-75
2023/03/13 07:20:51;;;;;;;8.47;8.17;;;13.00;42.00;;;;;;4964299;28;20775;-76
2023/03/13 07:23:17;;;;;;;7.10;6.90;;;13.00;42.20;;;;;;4969415;28;20437;-75
2023/03/13 07:25:42;;;;;;;8.27;7.90;;;12.90;42.70;;;;;;4991698;28;20437;-76
2023/03/13 07:28:08;;;;;;;7.30;7.10;;;12.90;42.90;;;;;;4959972;28;20602;-74
2023/03/13 07:30:33;;;;;;;8.40;8.10;;;12.90;42.80;;;;;;4977177;28;20561;-75
2023/03/13 07:32:59;;;;;;;7.63;7.33;;;12.90;42.90;;;;;;4982679;28;20178;-74
2023/03/13 07:35:24;;;;;;;8.33;8.03;;;12.90;42.90;;;;;;4991916;28;20676;-75
2023/03/13 07:37:51;;;;;;;8.27;7.97;;;12.90;43.10;;;;;;4984882;28;20174;-75
2023/03/13 07:40:17;;;;;;;7.90;7.70;;;13.00;43.30;;;;;;4979150;28;20186;-75
2023/03/13 07:42:42;;;;;;;9.17;8.77;;;13.00;42.90;;;;;;4971163;28;20962;-74
2023/03/13 07:45:08;;;;;;;8.47;8.27;;;13.00;43.10;;;;;;4990490;28;20227;-74
2023/03/13 07:47:34;;;;;;;8.57;8.17;;;13.00;43.10;;;;;;4990971;28;20174;-75
2023/03/13 07:50:00;;;;;;;8.57;8.37;;;13.10;43.10;;;;;;4973347;28;20496;-75
2023/03/13 07:52:26;;;;;;;8.30;7.90;;;13.10;42.90;;;;;;4993871;28;20445;-75
2023/03/13 07:54:53;;;;;;;8.53;8.23;;;13.00;43.00;;;;;;4994951;28;20755;-74
2023/03/13 07:57:19;;;;;;;8.27;7.97;;;13.00;43.10;;;;;;4995181;28;20412;-74
2023/03/13 07:59:44;;;;;;;7.97;7.67;;;13.00;43.10;;;;;;4996053;28;20405;-75
2023/03/13 08:02:12;;;;;;;8.10;7.87;;;13.00;43.20;;;;;;4996139;28;20464;-75
2023/03/13 08:04:38;;;;;;;8.37;8.07;;;13.00;43.00;;;;;;4996140;28;20170;-75
2023/03/13 08:07:08;;;;;;;7.60;7.40;;;13.10;43.10;;;;;;4995972;28;20433;-75
2023/03/13 08:09:33;;;;;;;8.23;7.83;;;13.10;42.50;;;;;;4995842;28;20401;-75
2023/03/13 08:11:59;;;;;;;8.13;7.93;;;13.20;42.60;;;;;;4995981;28;20745;-75
2023/03/13 08:14:25;;;;;;;8.23;7.93;;;13.30;41.90;;;;;;4996163;28;20177;-74
2023/03/13 08:16:50;;;;;;;8.10;7.80;;;13.30;42.10;;;;;;4978455;28;20193;-74
2023/03/13 08:19:16;;;;;;;8.30;7.90;;;13.30;42.10;;;;;;4996242;28;20224;-75
2023/03/13 08:21:41;;;;;;;8.13;7.83;;;13.30;42.00;;;;;;4995896;28;20182;-76
2023/03/13 08:24:08;;;;;;;7.23;7.03;;;13.40;41.40;;;;;;4996018;28;20644;-76
2023/03/13 08:26:35;;;;;;;7.97;7.77;;;13.40;41.10;;;;;;4995922;28;20190;-77
2023/03/13 08:29:07;;;;;;;8.53;8.30;;;13.50;41.40;;;;;;4978595;28;20416;-77
2023/03/13 08:31:36;;;;;;;8.20;7.80;;;13.50;40.40;;;;;;4995640;28;20482;-76
2023/03/13 08:34:02;;;;;;;8.40;8.00;;;13.50;40.70;;;;;;4995896;28;20409;-76
2023/03/13 08:36:36;;;;;;;8.70;8.37;;;13.60;40.60;;;;;;4996265;28;20439;-77
2023/03/13 08:39:06;;;;;;;8.93;8.63;;;13.60;40.20;;;;;;4995989;28;20177;-76
2023/03/13 08:41:35;;;;;;;7.73;7.43;;;13.70;40.50;;;;;;4995615;28;20784;-76
2023/03/13 08:44:01;;;;;;;8.30;8.00;;;13.70;39.60;;;;;;4995824;28;20424;-76
2023/03/13 08:46:30;;;;;;;8.77;8.47;;;13.70;39.70;;;;;;4995749;28;20437;-76
2023/03/13 08:48:56;;;;;;;8.47;8.17;;;13.80;39.70;;;;;;4995669;28;20416;-76
2023/03/13 08:51:24;;;;;;;8.73;8.43;;;13.80;39.60;;;;;;4995040;28;20464;-76
2023/03/13 08:53:50;;;;;;;9.07;8.77;;;13.80;39.30;;;;;;4978287;28;20185;-76
2023/03/13 08:56:19;;;;;;;8.30;8.10;;;13.90;39.60;;;;;;4995298;28;20453;-76
2023/03/13 08:58:52;;;;;;;8.90;8.60;;;13.90;39.30;;;;;;4995478;28;20406;-76
2023/03/13 09:01:19;;;;;;;8.80;8.50;;;13.90;38.90;;;;;;4994094;28;20946;-75
2023/03/13 09:03:44;;;;;;;8.70;8.40;;;13.90;38.70;;;;;;4994358;28;20413;-75
2023/03/13 09:06:11;;;;;;;9.30;9.00;;;14.00;39.20;;;;;;4995344;28;20437;-75
2023/03/13 09:08:38;;;;;;;9.70;9.20;;;14.00;38.20;;;;;;4977994;28;20182;-75
2023/03/13 09:11:06;;;;;;;9.00;8.70;;;14.00;38.30;;;;;;4978248;28;20597;-75
2023/03/13 09:13:34;;;;;;;10.13;9.53;;;14.10;38.10;;;;;;4978181;28;20414;-75
2023/03/13 09:16:06;;;;;;;8.83;8.53;;;14.10;38.20;;;;;;4995140;28;20437;-75
2023/03/13 09:18:32;;;;;;;9.17;8.87;;;14.10;37.60;;;;;;4978078;28;20432;-74
2023/03/13 09:20:58;;;;;;;9.63;9.33;;;14.10;37.70;;;;;;4995331;28;20422;-73
2023/03/13 09:23:24;;;;;;;9.70;9.20;;;14.20;37.30;;;;;;4977352;28;20417;-75
2023/03/13 09:25:54;;;;;;;9.70;9.20;;;14.20;37.30;;;;;;4977286;28;20694;-73
2023/03/13 09:28:21;;;;;;;10.10;9.73;;;14.20;37.20;;;;;;4974953;28;20797;-75
2023/03/13 09:30:48;;;;;;;9.50;9.20;;;14.30;36.80;;;;;;4976692;28;20453;-73
2023/03/13 09:33:14;;;;;;;9.33;9.03;;;14.30;36.50;;;;;;4982028;28;20418;-73
2023/03/13 09:35:40;;;;;;;9.20;8.90;;;14.30;36.20;;;;;;4990899;28;20452;-74
2023/03/13 15:22:35;;;;;;;7.33;6.90;;;20.60;15.70;;;;;;5883847;23;22120;-79
2023/03/13 15:25:00;;;;;;;6.00;5.80;;;20.50;16.00;;;;;;4953979;28;20477;-79
2023/03/13 15:27:26;;;;;;;6.80;6.60;;;20.50;16.10;;;;;;4978879;28;20419;-79
2023/03/13 15:29:52;;;;;;;6.80;6.40;;;20.50;16.30;;;;;;4961263;28;20223;-78
2023/03/13 15:32:29;;;;;;;6.20;6.00;;;20.50;16.00;;;;;;4958901;28;20251;-79
2023/03/13 15:35:00;;;;;;;7.10;6.60;;;20.50;16.10;;;;;;4974855;28;20170;-80
2023/03/13 15:37:34;;;;;;;6.67;6.37;;;20.50;16.60;;;;;;4958969;28;20453;-80
2023/03/13 16:44:43;;;;;;;6.70;6.50;;;19.60;19.10;;;;;;5592765;23;20478;-77
2023/03/13 16:47:28;;;;;;;6.40;6.10;;;19.60;19.30;;;;;;4957645;28;20426;-77
2023/03/13 16:49:54;;;;;;;6.90;6.50;;;19.50;19.80;;;;;;4958022;28;20245;-76
2023/03/13 16:52:19;;;;;;;8.80;6.80;;;19.50;19.60;;;;;;4975169;28;20434;-75
2023/03/13 16:54:45;;;;;;;7.53;6.80;;;19.40;19.70;;;;;;4976930;28;20261;-77
2023/03/13 16:57:13;;;;;;;6.37;6.17;;;19.40;19.80;;;;;;4978443;28;20242;-78
2023/03/13 16:59:38;;;;;;;5.93;5.73;;;19.30;20.20;;;;;;4962634;28;20434;-77
2023/03/13 17:02:11;;;;;;;6.73;6.43;;;19.30;19.90;;;;;;4980392;28;20580;-76
2023/03/13 17:04:36;;;;;;;6.57;6.37;;;19.20;20.10;;;;;;4979484;28;20183;-78
2023/03/13 17:07:02;;;;;;;6.67;6.37;;;19.20;20.30;;;;;;4976039;28;20968;-75
2023/03/13 17:09:28;;;;;;;6.93;6.60;;;19.20;20.50;;;;;;4976409;28;20195;-77
2023/03/13 17:11:53;;;;;;;7.20;6.50;;;19.00;20.60;;;;;;4979424;28;20426;-78
2023/03/13 17:14:19;;;;;;;6.70;6.50;;;18.90;20.90;;;;;;4980457;28;20187;-78
2023/03/13 17:16:44;;;;;;;6.77;6.37;;;18.80;20.90;;;;;;4980020;28;20183;-77
2023/03/13 17:19:14;;;;;;;6.80;6.60;;;18.70;21.20;;;;;;4980293;28;20199;-77
2023/03/13 17:21:39;;;;;;;7.37;7.03;;;18.60;21.50;;;;;;4979044;28;20206;-77
2023/03/13 17:24:06;;;;;;;7.80;7.40;;;18.50;21.60;;;;;;4976501;28;20938;-77
2023/03/13 17:26:34;;;;;;;9.50;8.80;;;18.40;22.10;;;;;;4977653;28;20171;-78
2023/03/13 17:29:01;;;;;;;9.37;8.77;;;18.40;22.20;;;;;;4975863;28;20791;-77
2023/03/13 17:31:28;;;;;;;9.97;8.30;;;18.30;22.40;;;;;;4975388;28;20934;-76
2023/03/13 17:33:53;;;;;;;9.50;8.90;;;18.20;22.80;;;;;;4975019;28;20418;-77
2023/03/13 17:36:24;;;;;;;9.67;8.87;;;18.10;23.10;;;;;;4974609;28;20559;-77
2023/03/13 17:38:52;;;;;;;8.90;7.83;;;18.10;23.30;;;;;;4974125;28;20673;-76
2023/03/13 17:41:20;;;;;;;9.87;8.93;;;18.00;23.50;;;;;;4973900;28;20465;-76
2023/03/13 17:43:46;;;;;;;8.73;8.33;;;18.00;23.80;;;;;;4975132;28;20412;-79
2023/03/13 17:46:24;;;;;;;9.43;8.63;;;17.90;23.90;;;;;;4977545;28;20875;-77
2023/03/13 17:48:53;;;;;;;10.57;9.87;;;17.90;24.10;;;;;;4975651;28;20944;-77
2023/03/13 17:51:20;;;;;;;9.83;9.10;;;17.80;24.30;;;;;;4974304;28;20418;-77
2023/03/13 17:53:46;;;;;;;10.63;9.90;;;17.70;24.40;;;;;;4957948;28;20422;-77
2023/03/13 17:56:17;;;;;;;10.53;9.73;;;17.70;24.60;;;;;;4965687;28;20457;-76
2023/03/13 17:58:43;;;;;;;9.67;9.17;;;17.70;24.90;;;;;;4955600;29;20203;-77
2023/03/13 18:01:13;;;;;;;9.60;9.03;;;17.60;24.90;;;;;;4979281;28;20493;-74
2023/03/13 18:03:38;;;;;;;10.77;9.93;;;17.60;25.20;;;;;;4981821;28;20491;-74
2023/03/13 18:06:04;;;;;;;10.43;9.80;;;17.50;25.40;;;;;;4997756;28;20442;-74
2023/03/13 18:08:30;;;;;;;9.80;8.90;;;17.50;25.60;;;;;;4996915;28;20213;-74
2023/03/13 18:10:56;;;;;;;9.00;8.40;;;17.40;25.70;;;;;;4996797;28;20430;-75
2023/03/13 18:13:21;;;;;;;9.47;8.53;;;17.40;25.80;;;;;;4985568;28;20197;-76
2023/03/13 18:15:47;;;;;;;8.93;8.53;;;17.40;26.00;;;;;;4976162;28;20669;-77
2023/03/13 18:18:15;;;;;;;8.43;8.03;;;17.30;26.30;;;;;;4958435;28;20198;-76
2023/03/13 18:20:41;;;;;;;9.00;8.50;;;17.30;26.30;;;;;;4975221;28;20234;-77
2023/03/13 18:23:06;;;;;;;14.00;8.33;;;17.20;26.20;;;;;;4979631;28;20411;-75
2023/03/13 18:25:32;;;;;;;9.57;8.63;;;17.20;26.30;;;;;;4979493;28;20178;-77
2023/03/13 18:27:58;;;;;;;7.53;7.03;;;17.20;26.60;;;;;;4976529;28;20186;-75
2023/03/13 18:30:25;;;;;;;7.70;7.40;;;17.20;26.40;;;;;;4995806;28;20178;-77
2023/03/13 18:32:51;;;;;;;8.33;7.93;;;17.20;27.00;;;;;;4998245;28;20409;-78
2023/03/13 18:35:17;;;;;;;8.17;7.50;;;17.10;26.90;;;;;;4971881;28;20638;-77
2023/03/13 18:37:45;;;;;;;6.60;6.40;;;17.20;26.20;;;;;;4961418;28;20184;-77
2023/03/13 18:40:24;;;;;;;6.37;6.07;;;17.40;26.40;;;;;;4939062;29;20471;-77
2023/03/13 18:42:50;;;;;;;6.53;6.23;;;17.30;28.10;;;;;;4959847;28;20473;-77
2023/03/13 18:45:21;;;;;;;7.33;6.90;;;17.20;28.60;;;;;;4978171;28;20442;-76
2023/03/13 18:47:47;;;;;;;7.47;7.17;;;16.90;31.60;;;;;;4978384;28;20175;-78
2023/03/13 18:50:23;;;;;;;6.77;6.57;;;16.70;34.00;;;;;;4979246;28;20461;-77
2023/03/13 18:52:49;;;;;;;6.47;6.27;;;16.50;36.20;;;;;;4961863;28;20429;-77
2023/03/13 18:55:15;;;;;;;7.27;7.07;;;16.20;38.30;;;;;;4964998;28;20427;-77
2023/03/13 18:57:41;;;;;;;7.30;6.80;;;15.90;40.30;;;;;;4984750;28;20493;-77
2023/03/13 19:00:16;;;;;;;6.70;6.47;;;15.50;43.30;;;;;;4977970;28;20217;-78
2023/03/13 19:02:42;;;;;;;6.63;6.43;;;15.10;45.50;;;;;;4974921;28;20468;-77
2023/03/13 19:05:08;;;;;;;6.90;6.70;;;15.10;45.90;;;;;;4974383;28;20445;-77
2023/03/13 19:07:34;;;;;;;6.47;6.27;;;15.10;44.20;;;;;;4975027;28;20516;-76
2023/03/13 19:10:00;;;;;;;9.27;8.80;;;15.00;44.90;;;;;;4973412;28;20492;-75
2023/03/13 19:12:26;;;;;;;6.97;6.77;;;15.00;46.00;;;;;;4973707;28;20266;-77
2023/03/13 19:14:51;;;;;;;12.40;11.40;;;14.90;46.70;;;;;;4973913;28;20550;-77
2023/03/13 19:17:28;;;;;;;7.57;6.97;;;14.90;47.40;;;;;;4973544;28;20192;-77
2023/03/13 19:19:56;;;;;;;7.03;6.73;;;14.90;48.20;;;;;;4975291;28;20274;-77
2023/03/13 19:22:23;;;;;;;6.93;6.50;;;14.90;47.50;;;;;;4974866;28;20435;-77
2023/03/13 19:24:49;;;;;;;7.03;6.73;;;15.00;48.40;;;;;;4976747;28;20445;-76
2023/03/13 19:27:15;;;;;;;7.17;6.67;;;15.10;48.80;;;;;;4977888;28;20434;-76
2023/03/13 19:29:41;;;;;;;7.27;6.80;;;15.10;48.50;;;;;;4977462;28;20465;-78
2023/03/13 19:32:12;;;;;;;7.30;7.00;;;15.10;48.20;;;;;;4976417;28;20421;-77